sensor_id;sensor_type;location;lat;lon;timestamp;P1;durP1;ratioP1;P2;durP2;ratioP2
12163;SDS011;6145;50.192;10.064;2023-10-08T16:25:04;1.57;;;1.47;;
12163;SDS011;6145;50.192;10.064;2023-10-08T16:27:40;2.70;;;2.00;;
12163;SDS011;6145;50.192;10.064;2023-10-08T16:30:20;2.83;;;1.27;;
12163;SDS011;6145;50.192;10.064;2023-10-08T16:33:31;1.50;;;1.40;;
12163;SDS011;6145;50.192;10.064;2023-10-08T16:38:51;4.03;;;2.47;;
12163;SDS011;6145;50.192;10.064;2023-10-08T16:41:23;2.43;;;2.23;;
12163;SDS011;6145;50.192;10.064;2023-10-08T16:43:50;2.00;;;1.80;;
12163;SDS011;6145;50.192;10.064;2023-10-08T16:46:17;3.43;;;1.37;;
12163;SDS011;6145;50.192;10.064;2023-10-08T16:48:44;3.13;;;1.90;;
12163;SDS011;6145;50.192;10.064;2023-10-08T16:51:22;3.63;;;2.00;;
12163;SDS011;6145;50.192;10.064;2023-10-08T17:03:46;1.70;;;1.30;;
12163;SDS011;6145;50.192;10.064;2023-10-08T17:06:13;3.07;;;2.07;;
12163;SDS011;6145;50.192;10.064;2023-10-08T17:08:43;1.80;;;1.70;;
12163;SDS011;6145;50.192;10.064;2023-10-08T17:11:10;1.87;;;1.50;;
12163;SDS011;6145;50.192;10.064;2023-10-08T17:13:39;5.33;;;2.20;;
12163;SDS011;6145;50.192;10.064;2023-10-08T17:16:07;2.27;;;1.70;;
12163;SDS011;6145;50.192;10.064;2023-10-08T17:18:38;2.60;;;2.03;;
12163;SDS011;6145;50.192;10.064;2023-10-08T17:40:05;2.37;;;2.00;;
12163;SDS011;6145;50.192;10.064;2023-10-08T17:42:33;3.30;;;2.00;;
12163;SDS011;6145;50.192;10.064;2023-10-08T17:45:02;2.40;;;2.20;;
12163;SDS011;6145;50.192;10.064;2023-10-08T17:47:31;1.83;;;1.63;;
12163;SDS011;6145;50.192;10.064;2023-10-08T17:50:01;3.30;;;1.80;;
12163;SDS011;6145;50.192;10.064;2023-10-08T17:55:26;2.10;;;1.33;;
12163;SDS011;6145;50.192;10.064;2023-10-08T17:57:56;5.10;;;1.80;;
12163;SDS011;6145;50.192;10.064;2023-10-08T18:00:24;2.10;;;1.90;;
12163;SDS011;6145;50.192;10.064;2023-10-08T18:02:51;2.00;;;1.50;;
12163;SDS011;6145;50.192;10.064;2023-10-08T18:05:18;2.67;;;1.90;;
12163;SDS011;6145;50.192;10.064;2023-10-08T18:07:46;1.70;;;1.60;;
12163;SDS011;6145;50.192;10.064;2023-10-08T18:10:21;1.83;;;1.63;;
12163;SDS011;6145;50.192;10.064;2023-10-08T18:12:48;2.47;;;2.10;;
12163;SDS011;6145;50.192;10.064;2023-10-08T18:15:20;3.20;;;1.70;;
12163;SDS011;6145;50.192;10.064;2023-10-08T18:17:51;2.83;;;1.97;;
12163;SDS011;6145;50.192;10.064;2023-10-08T18:20:19;2.30;;;2.07;;
12163;SDS011;6145;50.192;10.064;2023-10-08T18:22:54;3.03;;;2.10;;
12163;SDS011;6145;50.192;10.064;2023-10-08T18:25:26;2.60;;;2.40;;
12163;SDS011;6145;50.192;10.064;2023-10-08T18:27:57;3.27;;;2.33;;
12163;SDS011;6145;50.192;10.064;2023-10-08T18:30:24;3.10;;;2.90;;
12163;SDS011;6145;50.192;10.064;2023-10-08T18:35:48;3.60;;;2.77;;
12163;SDS011;6145;50.192;10.064;2023-10-08T18:38:16;3.30;;;2.87;;
12163;SDS011;6145;50.192;10.064;2023-10-08T18:43:27;2.30;;;2.10;;
12163;SDS011;6145;50.192;10.064;2023-10-08T18:45:56;2.57;;;2.37;;
12163;SDS011;6145;50.192;10.064;2023-10-08T18:48:32;3.67;;;2.20;;
12163;SDS011;6145;50.192;10.064;2023-10-08T18:51:16;2.20;;;2.00;;
12163;SDS011;6145;50.192;10.064;2023-10-08T19:34:46;1.80;;;1.70;;
12163;SDS011;6145;50.192;10.064;2023-10-08T19:37:16;2.30;;;1.63;;
12163;SDS011;6145;50.192;10.064;2023-10-08T19:39:43;2.30;;;2.10;;
12163;SDS011;6145;50.192;10.064;2023-10-08T19:42:10;5.70;;;2.67;;
12163;SDS011;6145;50.192;10.064;2023-10-08T20:25:37;2.37;;;2.17;;
12163;SDS011;6145;50.192;10.064;2023-10-08T20:28:06;2.33;;;2.00;;
12163;SDS011;6145;50.192;10.064;2023-10-08T20:39:33;2.60;;;2.00;;
12163;SDS011;6145;50.192;10.064;2023-10-08T20:42:19;2.83;;;1.87;;
12163;SDS011;6145;50.192;10.064;2023-10-08T20:44:47;3.57;;;2.37;;
12163;SDS011;6145;50.192;10.064;2023-10-08T20:47:13;3.50;;;2.00;;
12163;SDS011;6145;50.192;10.064;2023-10-08T20:49:40;2.10;;;2.00;;
12163;SDS011;6145;50.192;10.064;2023-10-08T20:52:09;2.30;;;2.10;;
12163;SDS011;6145;50.192;10.064;2023-10-08T20:54:40;2.20;;;2.00;;
12163;SDS011;6145;50.192;10.064;2023-10-08T20:57:07;2.87;;;2.20;;
12163;SDS011;6145;50.192;10.064;2023-10-08T20:59:35;3.10;;;2.57;;
12163;SDS011;6145;50.192;10.064;2023-10-08T21:02:03;2.50;;;1.90;;
12163;SDS011;6145;50.192;10.064;2023-10-08T21:04:35;3.43;;;1.93;;
12163;SDS011;6145;50.192;10.064;2023-10-08T21:07:02;3.23;;;2.53;;
12163;SDS011;6145;50.192;10.064;2023-10-08T21:09:31;2.50;;;1.80;;
12163;SDS011;6145;50.192;10.064;2023-10-08T21:12:00;2.10;;;2.00;;
12163;SDS011;6145;50.192;10.064;2023-10-08T21:14:28;2.17;;;1.50;;
12163;SDS011;6145;50.192;10.064;2023-10-08T21:16:55;2.10;;;1.90;;
12163;SDS011;6145;50.192;10.064;2023-10-08T21:19:22;1.93;;;1.60;;
12163;SDS011;6145;50.192;10.064;2023-10-08T21:21:51;1.80;;;1.50;;
12163;SDS011;6145;50.192;10.064;2023-10-08T21:24:18;4.47;;;1.50;;
12163;SDS011;6145;50.192;10.064;2023-10-08T21:26:47;3.00;;;1.73;;
12163;SDS011;6145;50.192;10.064;2023-10-08T21:29:14;1.83;;;1.70;;
12163;SDS011;6145;50.192;10.064;2023-10-08T21:31:43;2.13;;;1.80;;
12163;SDS011;6145;50.192;10.064;2023-10-08T21:34:11;1.93;;;1.70;;
12163;SDS011;6145;50.192;10.064;2023-10-08T21:36:38;2.40;;;2.07;;
12163;SDS011;6145;50.192;10.064;2023-10-08T21:39:05;5.20;;;2.13;;
12163;SDS011;6145;50.192;10.064;2023-10-08T21:41:35;1.60;;;1.50;;
12163;SDS011;6145;50.192;10.064;2023-10-08T21:44:05;1.50;;;1.40;;
12163;SDS011;6145;50.192;10.064;2023-10-08T21:46:32;2.07;;;1.80;;
12163;SDS011;6145;50.192;10.064;2023-10-08T21:48:59;1.87;;;1.70;;
12163;SDS011;6145;50.192;10.064;2023-10-08T21:51:26;2.10;;;1.60;;
12163;SDS011;6145;50.192;10.064;2023-10-08T21:53:53;3.37;;;1.90;;
12163;SDS011;6145;50.192;10.064;2023-10-08T21:56:20;2.00;;;1.77;;
12163;SDS011;6145;50.192;10.064;2023-10-08T21:58:47;4.87;;;2.10;;
12163;SDS011;6145;50.192;10.064;2023-10-08T22:01:15;1.90;;;1.80;;
12163;SDS011;6145;50.192;10.064;2023-10-08T22:03:48;2.07;;;1.80;;
12163;SDS011;6145;50.192;10.064;2023-10-08T22:06:15;1.77;;;1.50;;
12163;SDS011;6145;50.192;10.064;2023-10-08T22:08:43;2.07;;;1.70;;
12163;SDS011;6145;50.192;10.064;2023-10-08T22:11:11;1.80;;;1.70;;
12163;SDS011;6145;50.192;10.064;2023-10-08T22:13:40;2.00;;;1.80;;
12163;SDS011;6145;50.192;10.064;2023-10-08T22:16:07;2.87;;;1.50;;
12163;SDS011;6145;50.192;10.064;2023-10-08T22:18:44;4.17;;;1.40;;
12163;SDS011;6145;50.192;10.064;2023-10-08T22:21:16;1.57;;;1.33;;
12163;SDS011;6145;50.192;10.064;2023-10-08T22:23:44;1.60;;;1.50;;
12163;SDS011;6145;50.192;10.064;2023-10-08T22:26:11;4.43;;;1.40;;
12163;SDS011;6145;50.192;10.064;2023-10-08T22:28:39;2.27;;;1.20;;
12163;SDS011;6145;50.192;10.064;2023-10-08T22:31:09;1.10;;;1.10;;
12163;SDS011;6145;50.192;10.064;2023-10-08T22:33:39;2.03;;;1.40;;
12163;SDS011;6145;50.192;10.064;2023-10-08T22:36:11;1.30;;;1.20;;
12163;SDS011;6145;50.192;10.064;2023-10-08T22:38:52;1.50;;;1.40;;
12163;SDS011;6145;50.192;10.064;2023-10-08T22:41:20;3.23;;;1.57;;
12163;SDS011;6145;50.192;10.064;2023-10-08T22:44:00;1.50;;;1.33;;
12163;SDS011;6145;50.192;10.064;2023-10-08T22:46:28;3.37;;;1.47;;
12163;SDS011;6145;50.192;10.064;2023-10-08T22:49:00;3.40;;;1.50;;
12163;SDS011;6145;50.192;10.064;2023-10-08T22:51:31;2.70;;;1.80;;
12163;SDS011;6145;50.192;10.064;2023-10-08T22:54:03;3.90;;;1.63;;
12163;SDS011;6145;50.192;10.064;2023-10-08T22:56:32;1.50;;;1.40;;
12163;SDS011;6145;50.192;10.064;2023-10-08T22:58:59;1.30;;;1.20;;
12163;SDS011;6145;50.192;10.064;2023-10-08T23:01:32;1.60;;;1.50;;
12163;SDS011;6145;50.192;10.064;2023-10-08T23:04:01;2.57;;;1.50;;
12163;SDS011;6145;50.192;10.064;2023-10-08T23:06:28;1.40;;;1.30;;
12163;SDS011;6145;50.192;10.064;2023-10-08T23:08:55;1.30;;;1.20;;
12163;SDS011;6145;50.192;10.064;2023-10-08T23:11:24;2.80;;;1.40;;
12163;SDS011;6145;50.192;10.064;2023-10-08T23:13:51;1.60;;;1.40;;
12163;SDS011;6145;50.192;10.064;2023-10-08T23:16:18;1.93;;;1.23;;
12163;SDS011;6145;50.192;10.064;2023-10-08T23:18:45;1.53;;;1.43;;
12163;SDS011;6145;50.192;10.064;2023-10-08T23:21:16;4.27;;;1.60;;
12163;SDS011;6145;50.192;10.064;2023-10-08T23:23:45;2.80;;;1.40;;
12163;SDS011;6145;50.192;10.064;2023-10-08T23:26:12;3.13;;;1.77;;
12163;SDS011;6145;50.192;10.064;2023-10-08T23:28:41;1.10;;;1.10;;
12163;SDS011;6145;50.192;10.064;2023-10-08T23:31:08;3.23;;;1.60;;
12163;SDS011;6145;50.192;10.064;2023-10-08T23:33:36;1.23;;;1.13;;
12163;SDS011;6145;50.192;10.064;2023-10-08T23:36:05;1.57;;;1.23;;
12163;SDS011;6145;50.192;10.064;2023-10-08T23:38:36;1.73;;;1.63;;
12163;SDS011;6145;50.192;10.064;2023-10-08T23:41:05;1.20;;;1.10;;
12163;SDS011;6145;50.192;10.064;2023-10-08T23:43:41;1.50;;;1.40;;
12163;SDS011;6145;50.192;10.064;2023-10-08T23:46:18;2.37;;;1.30;;
12163;SDS011;6145;50.192;10.064;2023-10-08T23:48:55;1.73;;;1.40;;
12163;SDS011;6145;50.192;10.064;2023-10-08T23:51:30;2.47;;;1.70;;
12163;SDS011;6145;50.192;10.064;2023-10-08T23:54:01;1.40;;;1.30;;
12163;SDS011;6145;50.192;10.064;2023-10-08T23:56:28;1.40;;;1.30;;
12163;SDS011;6145;50.192;10.064;2023-10-08T23:58:55;1.93;;;1.30;;
